sensor_id;sensor_type;location;lat;lon;timestamp;pressure;altitude;pressure_sealevel;temperature;humidity
9672;BME280;4874;43.568;27.824;2023-03-02T00:01:04;99652.66;;;5.87;100.00
9672;BME280;4874;43.568;27.824;2023-03-02T00:03:38;99658.13;;;6.11;100.00
9672;BME280;4874;43.568;27.824;2023-03-02T00:06:08;99632.88;;;5.94;100.00
9672;BME280;4874;43.568;27.824;2023-03-02T00:08:36;99662.63;;;6.09;100.00
9672;BME280;4874;43.568;27.824;2023-03-02T00:11:03;99666.19;;;6.22;100.00
9672;BME280;4874;43.568;27.824;2023-03-02T00:13:31;99674.81;;;5.97;100.00
9672;BME280;4874;43.568;27.824;2023-03-02T00:15:58;99662.59;;;5.96;100.00
9672;BME280;4874;43.568;27.824;2023-03-02T00:18:25;99655.38;;;5.85;100.00
9672;BME280;4874;43.568;27.824;2023-03-02T00:20:52;99651.69;;;5.88;100.00
9672;BME280;4874;43.568;27.824;2023-03-02T00:23:18;99649.69;;;5.91;100.00
9672;BME280;4874;43.568;27.824;2023-03-02T00:25:45;99656.31;;;5.84;100.00
9672;BME280;4874;43.568;27.824;2023-03-02T00:28:12;99645.63;;;6.00;100.00
9672;BME280;4874;43.568;27.824;2023-03-02T00:30:39;99653.84;;;5.81;100.00
9672;BME280;4874;43.568;27.824;2023-03-02T00:33:05;99642.78;;;5.62;100.00
9672;BME280;4874;43.568;27.824;2023-03-02T00:35:39;99641.84;;;5.63;100.00
9672;BME280;4874;43.568;27.824;2023-03-02T00:38:06;99641.09;;;5.61;100.00
9672;BME280;4874;43.568;27.824;2023-03-02T00:40:34;99640.25;;;5.47;100.00
9672;BME280;4874;43.568;27.824;2023-03-02T00:43:01;99639.88;;;5.53;100.00
9672;BME280;4874;43.568;27.824;2023-03-02T00:45:27;99623.41;;;5.63;100.00
9672;BME280;4874;43.568;27.824;2023-03-02T00:47:54;99611.13;;;5.50;100.00
9672;BME280;4874;43.568;27.824;2023-03-02T00:50:21;99606.34;;;5.42;100.00
9672;BME280;4874;43.568;27.824;2023-03-02T00:52:48;99615.41;;;5.65;100.00
9672;BME280;4874;43.568;27.824;2023-03-02T00:55:15;99583.50;;;5.43;100.00
9672;BME280;4874;43.568;27.824;2023-03-02T00:57:41;99618.91;;;5.65;100.00
9672;BME280;4874;43.568;27.824;2023-03-02T01:00:08;99622.59;;;5.35;100.00
9672;BME280;4874;43.568;27.824;2023-03-02T01:02:35;99614.31;;;5.55;100.00
9672;BME280;4874;43.568;27.824;2023-03-02T01:05:04;99576.63;;;5.40;100.00
9672;BME280;4874;43.568;27.824;2023-03-02T01:07:31;99621.81;;;5.61;100.00
9672;BME280;4874;43.568;27.824;2023-03-02T01:09:58;99614.69;;;5.49;100.00
9672;BME280;4874;43.568;27.824;2023-03-02T01:12:25;99612.06;;;5.49;100.00
9672;BME280;4874;43.568;27.824;2023-03-02T01:14:52;99605.09;;;5.48;100.00
9672;BME280;4874;43.568;27.824;2023-03-02T01:17:19;99615.28;;;5.40;100.00
9672;BME280;4874;43.568;27.824;2023-03-02T01:19:47;99607.16;;;5.57;100.00
9672;BME280;4874;43.568;27.824;2023-03-02T01:22:14;99587.53;;;5.48;100.00
9672;BME280;4874;43.568;27.824;2023-03-02T01:24:40;99619.91;;;5.77;100.00
9672;BME280;4874;43.568;27.824;2023-03-02T01:27:07;99614.19;;;5.70;100.00
9672;BME280;4874;43.568;27.824;2023-03-02T01:29:34;99584.66;;;5.65;100.00
9672;BME280;4874;43.568;27.824;2023-03-02T01:32:02;99607.31;;;5.68;100.00
9672;BME280;4874;43.568;27.824;2023-03-02T01:34:29;99610.50;;;5.87;100.00
9672;BME280;4874;43.568;27.824;2023-03-02T01:36:56;99601.94;;;5.83;100.00
9672;BME280;4874;43.568;27.824;2023-03-02T01:39:22;99606.19;;;5.72;100.00
9672;BME280;4874;43.568;27.824;2023-03-02T01:41:51;99594.56;;;5.62;100.00
9672;BME280;4874;43.568;27.824;2023-03-02T01:44:41;99599.66;;;5.37;100.00
9672;BME280;4874;43.568;27.824;2023-03-02T01:50:03;99599.50;;;5.40;100.00
9672;BME280;4874;43.568;27.824;2023-03-02T01:52:34;99605.09;;;5.48;100.00
9672;BME280;4874;43.568;27.824;2023-03-02T01:55:06;99597.56;;;5.56;100.00
9672;BME280;4874;43.568;27.824;2023-03-02T01:57:37;99591.38;;;5.57;100.00
9672;BME280;4874;43.568;27.824;2023-03-02T02:00:15;99585.63;;;5.50;100.00
9672;BME280;4874;43.568;27.824;2023-03-02T02:02:45;99577.47;;;5.41;100.00
9672;BME280;4874;43.568;27.824;2023-03-02T02:05:16;99604.47;;;5.44;100.00
9672;BME280;4874;43.568;27.824;2023-03-02T02:07:46;99592.50;;;5.53;100.00
9672;BME280;4874;43.568;27.824;2023-03-02T02:10:13;99594.34;;;5.24;100.00
9672;BME280;4874;43.568;27.824;2023-03-02T02:12:39;99586.50;;;5.37;100.00
9672;BME280;4874;43.568;27.824;2023-03-02T02:15:07;99586.09;;;5.57;100.00
9672;BME280;4874;43.568;27.824;2023-03-02T02:17:34;99588.25;;;5.50;100.00
9672;BME280;4874;43.568;27.824;2023-03-02T02:20:03;99588.00;;;5.41;100.00
9672;BME280;4874;43.568;27.824;2023-03-02T02:25:11;99593.28;;;5.41;100.00
9672;BME280;4874;43.568;27.824;2023-03-02T02:27:43;99597.22;;;5.34;100.00
9672;BME280;4874;43.568;27.824;2023-03-02T02:30:13;99596.66;;;5.43;100.00
9672;BME280;4874;43.568;27.824;2023-03-02T02:32:42;99589.66;;;5.56;100.00
9672;BME280;4874;43.568;27.824;2023-03-02T02:35:19;99598.66;;;5.66;100.00
9672;BME280;4874;43.568;27.824;2023-03-02T02:37:52;99596.03;;;5.66;100.00
9672;BME280;4874;43.568;27.824;2023-03-02T02:43:05;99596.00;;;5.39;100.00
9672;BME280;4874;43.568;27.824;2023-03-02T02:45:32;99604.75;;;5.40;100.00
9672;BME280;4874;43.568;27.824;2023-03-02T02:47:59;99587.38;;;5.23;100.00
9672;BME280;4874;43.568;27.824;2023-03-02T02:50:28;99606.03;;;5.47;100.00
9672;BME280;4874;43.568;27.824;2023-03-02T02:53:08;99602.16;;;5.66;100.00
9672;BME280;4874;43.568;27.824;2023-03-02T02:55:38;99600.88;;;5.45;100.00
9672;BME280;4874;43.568;27.824;2023-03-02T03:01:02;99567.84;;;5.13;100.00
9672;BME280;4874;43.568;27.824;2023-03-02T03:03:31;99612.47;;;5.43;100.00
9672;BME280;4874;43.568;27.824;2023-03-02T03:06:02;99613.09;;;5.46;100.00
9672;BME280;4874;43.568;27.824;2023-03-02T03:11:13;99612.56;;;5.41;100.00
9672;BME280;4874;43.568;27.824;2023-03-02T03:13:42;99609.81;;;5.43;100.00
9672;BME280;4874;43.568;27.824;2023-03-02T03:16:12;99611.94;;;5.50;100.00
9672;BME280;4874;43.568;27.824;2023-03-02T03:18:47;99610.75;;;5.42;100.00
9672;BME280;4874;43.568;27.824;2023-03-02T03:21:16;99606.44;;;5.41;100.00
9672;BME280;4874;43.568;27.824;2023-03-02T03:23:43;99610.19;;;5.37;100.00
9672;BME280;4874;43.568;27.824;2023-03-02T03:26:10;99605.66;;;5.53;100.00
9672;BME280;4874;43.568;27.824;2023-03-02T03:28:37;99578.75;;;4.93;100.00
9672;BME280;4874;43.568;27.824;2023-03-02T03:31:04;99619.78;;;5.38;100.00
9672;BME280;4874;43.568;27.824;2023-03-02T03:33:30;99603.97;;;5.52;100.00
9672;BME280;4874;43.568;27.824;2023-03-02T03:35:57;99618.19;;;5.76;100.00
9672;BME280;4874;43.568;27.824;2023-03-02T03:38:26;99612.06;;;5.35;100.00
9672;BME280;4874;43.568;27.824;2023-03-02T03:40:53;99608.13;;;5.42;100.00
9672;BME280;4874;43.568;27.824;2023-03-02T03:43:19;99620.47;;;5.27;100.00
9672;BME280;4874;43.568;27.824;2023-03-02T03:45:46;99579.97;;;4.88;100.00
9672;BME280;4874;43.568;27.824;2023-03-02T03:48:13;99556.09;;;5.05;100.00
9672;BME280;4874;43.568;27.824;2023-03-02T03:50:39;99627.69;;;5.52;100.00
9672;BME280;4874;43.568;27.824;2023-03-02T03:53:06;99595.34;;;5.50;100.00
9672;BME280;4874;43.568;27.824;2023-03-02T03:55:33;99629.81;;;5.59;100.00
9672;BME280;4874;43.568;27.824;2023-03-02T03:57:59;99594.72;;;5.18;100.00
9672;BME280;4874;43.568;27.824;2023-03-02T04:00:26;99627.19;;;5.45;100.00
9672;BME280;4874;43.568;27.824;2023-03-02T04:02:53;99633.31;;;5.32;100.00
9672;BME280;4874;43.568;27.824;2023-03-02T04:05:20;99626.38;;;5.31;100.00
9672;BME280;4874;43.568;27.824;2023-03-02T04:07:46;99633.06;;;5.08;100.00
9672;BME280;4874;43.568;27.824;2023-03-02T04:10:13;99614.53;;;5.24;100.00
9672;BME280;4874;43.568;27.824;2023-03-02T04:12:40;99627.69;;;5.24;100.00
9672;BME280;4874;43.568;27.824;2023-03-02T04:15:12;99633.53;;;5.29;100.00
9672;BME280;4874;43.568;27.824;2023-03-02T04:17:39;99627.50;;;5.13;100.00
9672;BME280;4874;43.568;27.824;2023-03-02T04:20:10;99626.03;;;5.09;100.00
9672;BME280;4874;43.568;27.824;2023-03-02T04:22:39;99632.78;;;4.99;100.00
9672;BME280;4874;43.568;27.824;2023-03-02T04:25:06;99599.97;;;4.62;100.00
9672;BME280;4874;43.568;27.824;2023-03-02T04:27:33;99628.81;;;4.77;100.00
9672;BME280;4874;43.568;27.824;2023-03-02T04:30:00;99629.09;;;4.73;100.00
9672;BME280;4874;43.568;27.824;2023-03-02T04:32:27;99624.31;;;4.79;100.00
9672;BME280;4874;43.568;27.824;2023-03-02T04:34:53;99617.56;;;5.04;100.00
9672;BME280;4874;43.568;27.824;2023-03-02T04:37:20;99648.41;;;5.16;100.00
9672;BME280;4874;43.568;27.824;2023-03-02T04:39:47;99546.34;;;4.64;100.00
9672;BME280;4874;43.568;27.824;2023-03-02T04:42:20;99625.81;;;4.98;100.00
9672;BME280;4874;43.568;27.824;2023-03-02T04:44:47;99636.88;;;4.89;100.00
9672;BME280;4874;43.568;27.824;2023-03-02T04:47:14;99649.69;;;4.95;100.00
9672;BME280;4874;43.568;27.824;2023-03-02T04:49:41;99655.91;;;5.22;100.00
9672;BME280;4874;43.568;27.824;2023-03-02T04:52:08;99657.69;;;5.35;100.00
9672;BME280;4874;43.568;27.824;2023-03-02T04:54:34;99649.50;;;5.26;100.00
9672;BME280;4874;43.568;27.824;2023-03-02T04:57:01;99650.06;;;5.03;100.00
9672;BME280;4874;43.568;27.824;2023-03-02T04:59:28;99655.16;;;4.92;100.00
9672;BME280;4874;43.568;27.824;2023-03-02T05:01:57;99655.69;;;5.39;100.00
9672;BME280;4874;43.568;27.824;2023-03-02T05:04:26;99656.44;;;4.85;100.00
9672;BME280;4874;43.568;27.824;2023-03-02T05:06:53;99651.56;;;4.93;100.00
9672;BME280;4874;43.568;27.824;2023-03-02T05:09:20;99670.94;;;4.92;100.00
9672;BME280;4874;43.568;27.824;2023-03-02T05:11:57;99665.28;;;5.12;100.00
9672;BME280;4874;43.568;27.824;2023-03-02T05:14:25;99671.69;;;5.22;100.00
9672;BME280;4874;43.568;27.824;2023-03-02T05:16:52;99672.97;;;5.01;100.00
9672;BME280;4874;43.568;27.824;2023-03-02T05:19:19;99662.56;;;4.99;100.00
9672;BME280;4874;43.568;27.824;2023-03-02T05:21:46;99677.13;;;5.05;100.00
9672;BME280;4874;43.568;27.824;2023-03-02T05:24:12;99676.97;;;5.50;100.00
9672;BME280;4874;43.568;27.824;2023-03-02T05:26:39;99678.44;;;4.98;100.00
9672;BME280;4874;43.568;27.824;2023-03-02T05:29:06;99683.56;;;4.85;100.00
9672;BME280;4874;43.568;27.824;2023-03-02T05:31:42;99677.31;;;5.02;100.00
9672;BME280;4874;43.568;27.824;2023-03-02T05:34:11;99678.81;;;5.06;100.00
9672;BME280;4874;43.568;27.824;2023-03-02T05:36:38;99684.28;;;5.17;100.00
9672;BME280;4874;43.568;27.824;2023-03-02T05:39:05;99679.38;;;4.97;100.00
9672;BME280;4874;43.568;27.824;2023-03-02T05:41:33;99682.38;;;4.91;100.00
9672;BME280;4874;43.568;27.824;2023-03-02T05:44:00;99668.81;;;4.68;100.00
9672;BME280;4874;43.568;27.824;2023-03-02T05:46:27;99689.53;;;5.03;100.00
9672;BME280;4874;43.568;27.824;2023-03-02T05:48:54;99688.81;;;4.85;100.00
9672;BME280;4874;43.568;27.824;2023-03-02T05:51:21;99667.34;;;4.93;100.00
9672;BME280;4874;43.568;27.824;2023-03-02T05:53:48;99689.25;;;5.35;100.00
9672;BME280;4874;43.568;27.824;2023-03-02T05:56:14;99691.56;;;4.83;100.00
9672;BME280;4874;43.568;27.824;2023-03-02T05:58:41;99687.72;;;4.89;100.00
9672;BME280;4874;43.568;27.824;2023-03-02T06:01:09;99685.34;;;4.70;100.00
9672;BME280;4874;43.568;27.824;2023-03-02T06:03:40;99687.81;;;4.88;100.00
9672;BME280;4874;43.568;27.824;2023-03-02T06:06:06;99697.50;;;5.01;100.00
9672;BME280;4874;43.568;27.824;2023-03-02T06:08:33;99694.69;;;5.04;100.00
9672;BME280;4874;43.568;27.824;2023-03-02T06:11:00;99695.34;;;4.94;100.00
9672;BME280;4874;43.568;27.824;2023-03-02T06:13:27;99700.34;;;4.68;100.00
9672;BME280;4874;43.568;27.824;2023-03-02T06:15:53;99673.34;;;5.93;100.00
9672;BME280;4874;43.568;27.824;2023-03-02T06:18:21;99698.56;;;9.06;100.00
9672;BME280;4874;43.568;27.824;2023-03-02T06:20:48;99688.47;;;9.22;100.00
9672;BME280;4874;43.568;27.824;2023-03-02T06:23:15;99697.91;;;8.92;100.00
9672;BME280;4874;43.568;27.824;2023-03-02T06:25:42;99698.94;;;6.83;100.00
9672;BME280;4874;43.568;27.824;2023-03-02T06:28:15;99707.03;;;5.60;100.00
9672;BME280;4874;43.568;27.824;2023-03-02T06:30:42;99702.34;;;5.37;100.00
9672;BME280;4874;43.568;27.824;2023-03-02T06:33:08;99712.50;;;5.57;100.00
9672;BME280;4874;43.568;27.824;2023-03-02T06:35:35;99708.25;;;5.68;100.00
9672;BME280;4874;43.568;27.824;2023-03-02T06:38:02;99710.72;;;5.43;100.00
9672;BME280;4874;43.568;27.824;2023-03-02T06:40:29;99717.19;;;5.24;100.00
9672;BME280;4874;43.568;27.824;2023-03-02T06:42:56;99718.81;;;4.82;100.00
9672;BME280;4874;43.568;27.824;2023-03-02T06:45:27;99666.34;;;4.65;100.00
9672;BME280;4874;43.568;27.824;2023-03-02T06:47:54;99715.78;;;4.74;100.00
9672;BME280;4874;43.568;27.824;2023-03-02T06:50:21;99710.22;;;5.09;100.00
9672;BME280;4874;43.568;27.824;2023-03-02T06:52:48;99709.88;;;4.85;100.00
9672;BME280;4874;43.568;27.824;2023-03-02T06:55:14;99722.97;;;5.01;100.00
9672;BME280;4874;43.568;27.824;2023-03-02T06:57:41;99687.84;;;5.02;100.00
9672;BME280;4874;43.568;27.824;2023-03-02T07:00:09;99718.75;;;4.98;100.00
9672;BME280;4874;43.568;27.824;2023-03-02T07:02:43;99711.38;;;5.33;100.00
9672;BME280;4874;43.568;27.824;2023-03-02T07:05:11;99707.13;;;5.02;100.00
9672;BME280;4874;43.568;27.824;2023-03-02T07:07:38;99714.06;;;4.73;100.00
9672;BME280;4874;43.568;27.824;2023-03-02T07:10:06;99716.59;;;5.05;100.00
9672;BME280;4874;43.568;27.824;2023-03-02T07:12:33;99720.91;;;5.06;100.00
9672;BME280;4874;43.568;27.824;2023-03-02T07:15:00;99704.50;;;5.30;100.00
9672;BME280;4874;43.568;27.824;2023-03-02T07:17:26;99719.34;;;5.17;100.00
9672;BME280;4874;43.568;27.824;2023-03-02T07:19:53;99715.50;;;5.37;100.00
9672;BME280;4874;43.568;27.824;2023-03-02T07:22:20;99714.38;;;5.55;100.00
9672;BME280;4874;43.568;27.824;2023-03-02T07:24:47;99684.66;;;5.39;100.00
9672;BME280;4874;43.568;27.824;2023-03-02T07:27:14;99712.75;;;5.38;100.00
9672;BME280;4874;43.568;27.824;2023-03-02T07:29:41;99714.94;;;5.60;100.00
9672;BME280;4874;43.568;27.824;2023-03-02T07:32:07;99719.16;;;5.90;100.00
9672;BME280;4874;43.568;27.824;2023-03-02T07:34:37;99711.94;;;5.52;100.00
9672;BME280;4874;43.568;27.824;2023-03-02T07:37:04;99713.78;;;5.64;100.00
9672;BME280;4874;43.568;27.824;2023-03-02T07:39:31;99712.97;;;5.63;100.00
9672;BME280;4874;43.568;27.824;2023-03-02T07:41:58;99731.66;;;6.01;100.00
9672;BME280;4874;43.568;27.824;2023-03-02T07:44:26;99712.34;;;6.15;100.00
9672;BME280;4874;43.568;27.824;2023-03-02T07:46:53;99705.69;;;6.36;100.00
9672;BME280;4874;43.568;27.824;2023-03-02T07:49:20;99707.41;;;6.88;100.00
9672;BME280;4874;43.568;27.824;2023-03-02T07:51:46;99700.63;;;6.72;100.00
9672;BME280;4874;43.568;27.824;2023-03-02T07:54:17;99679.22;;;5.96;100.00
9672;BME280;4874;43.568;27.824;2023-03-02T07:56:43;99707.53;;;6.60;100.00
9672;BME280;4874;43.568;27.824;2023-03-02T07:59:11;99700.97;;;6.41;100.00
9672;BME280;4874;43.568;27.824;2023-03-02T08:01:39;99689.59;;;6.26;100.00
9672;BME280;4874;43.568;27.824;2023-03-02T08:04:06;99707.38;;;6.37;100.00
9672;BME280;4874;43.568;27.824;2023-03-02T08:06:36;99706.47;;;6.50;100.00
9672;BME280;4874;43.568;27.824;2023-03-02T08:09:03;99715.97;;;6.53;100.00
9672;BME280;4874;43.568;27.824;2023-03-02T08:11:31;99710.97;;;6.75;100.00
9672;BME280;4874;43.568;27.824;2023-03-02T08:14:07;99717.28;;;6.72;100.00
9672;BME280;4874;43.568;27.824;2023-03-02T08:16:34;99713.94;;;6.83;100.00
9672;BME280;4874;43.568;27.824;2023-03-02T08:19:01;99706.63;;;6.74;100.00
9672;BME280;4874;43.568;27.824;2023-03-02T08:21:28;99718.34;;;6.70;100.00
9672;BME280;4874;43.568;27.824;2023-03-02T08:23:54;99711.97;;;6.99;100.00
9672;BME280;4874;43.568;27.824;2023-03-02T08:26:23;99708.03;;;6.92;100.00
9672;BME280;4874;43.568;27.824;2023-03-02T08:28:49;99711.56;;;7.18;100.00
9672;BME280;4874;43.568;27.824;2023-03-02T08:31:18;99712.91;;;7.10;100.00
9672;BME280;4874;43.568;27.824;2023-03-02T08:33:45;99709.69;;;6.15;100.00
9672;BME280;4874;43.568;27.824;2023-03-02T08:36:14;99710.66;;;6.79;100.00
9672;BME280;4874;43.568;27.824;2023-03-02T08:38:42;99697.06;;;6.98;100.00
9672;BME280;4874;43.568;27.824;2023-03-02T08:41:15;99698.34;;;7.18;100.00
9672;BME280;4874;43.568;27.824;2023-03-02T08:43:42;99681.31;;;6.96;100.00
9672;BME280;4874;43.568;27.824;2023-03-02T08:46:11;99680.16;;;6.88;100.00
9672;BME280;4874;43.568;27.824;2023-03-02T08:48:38;99667.38;;;6.69;100.00
9672;BME280;4874;43.568;27.824;2023-03-02T08:51:12;99710.06;;;7.51;100.00
9672;BME280;4874;43.568;27.824;2023-03-02T08:53:41;99703.38;;;7.71;100.00
9672;BME280;4874;43.568;27.824;2023-03-02T08:56:19;99706.78;;;7.48;100.00
9672;BME280;4874;43.568;27.824;2023-03-02T08:58:47;99702.03;;;7.02;100.00
9672;BME280;4874;43.568;27.824;2023-03-02T09:01:21;99695.78;;;7.29;100.00
9672;BME280;4874;43.568;27.824;2023-03-02T09:03:48;99716.38;;;6.98;100.00
9672;BME280;4874;43.568;27.824;2023-03-02T09:06:15;99706.78;;;7.73;100.00
9672;BME280;4874;43.568;27.824;2023-03-02T09:08:42;99707.41;;;7.13;100.00
9672;BME280;4874;43.568;27.824;2023-03-02T09:11:09;99705.00;;;7.48;100.00
9672;BME280;4874;43.568;27.824;2023-03-02T09:13:36;99703.53;;;7.19;100.00
9672;BME280;4874;43.568;27.824;2023-03-02T09:16:04;99708.28;;;7.14;100.00
9672;BME280;4874;43.568;27.824;2023-03-02T09:18:31;99696.84;;;7.51;100.00
9672;BME280;4874;43.568;27.824;2023-03-02T09:20:57;99712.75;;;7.75;100.00
9672;BME280;4874;43.568;27.824;2023-03-02T09:23:26;99689.25;;;7.47;100.00
9672;BME280;4874;43.568;27.824;2023-03-02T09:25:53;99686.28;;;7.13;100.00
9672;BME280;4874;43.568;27.824;2023-03-02T09:28:21;99707.19;;;7.67;100.00
9672;BME280;4874;43.568;27.824;2023-03-02T09:30:50;99685.03;;;7.93;100.00
9672;BME280;4874;43.568;27.824;2023-03-02T09:33:17;99692.22;;;7.91;100.00
9672;BME280;4874;43.568;27.824;2023-03-02T09:35:44;99683.44;;;7.90;100.00
9672;BME280;4874;43.568;27.824;2023-03-02T09:38:13;99685.09;;;8.04;100.00
9672;BME280;4874;43.568;27.824;2023-03-02T09:41:25;99673.81;;;8.38;100.00
9672;BME280;4874;43.568;27.824;2023-03-02T09:47:41;99670.19;;;7.67;100.00
9672;BME280;4874;43.568;27.824;2023-03-02T09:50:26;99674.19;;;8.08;100.00
9672;BME280;4874;43.568;27.824;2023-03-02T09:55:30;99659.88;;;8.23;100.00
9672;BME280;4874;43.568;27.824;2023-03-02T09:57:58;99652.59;;;8.62;100.00
9672;BME280;4874;43.568;27.824;2023-03-02T10:00:35;99655.34;;;9.06;100.00
9672;BME280;4874;43.568;27.824;2023-03-02T10:03:19;99650.53;;;9.11;100.00
9672;BME280;4874;43.568;27.824;2023-03-02T10:05:52;99656.56;;;9.13;100.00
9672;BME280;4874;43.568;27.824;2023-03-02T10:08:25;99650.19;;;8.59;100.00
9672;BME280;4874;43.568;27.824;2023-03-02T10:11:00;99654.44;;;8.83;100.00
9672;BME280;4874;43.568;27.824;2023-03-02T10:13:48;99647.63;;;8.92;100.00
9672;BME280;4874;43.568;27.824;2023-03-02T10:16:36;99627.38;;;8.45;100.00
9672;BME280;4874;43.568;27.824;2023-03-02T10:19:24;99646.50;;;8.72;100.00
9672;BME280;4874;43.568;27.824;2023-03-02T10:22:01;99642.19;;;8.93;100.00
9672;BME280;4874;43.568;27.824;2023-03-02T10:24:47;99636.66;;;8.51;100.00
9672;BME280;4874;43.568;27.824;2023-03-02T10:29:54;99624.91;;;8.55;100.00
9672;BME280;4874;43.568;27.824;2023-03-02T10:32:32;99627.47;;;8.67;100.00
9672;BME280;4874;43.568;27.824;2023-03-02T10:35:17;99624.84;;;8.78;100.00
9672;BME280;4874;43.568;27.824;2023-03-02T10:37:44;99615.84;;;8.92;100.00
9672;BME280;4874;43.568;27.824;2023-03-02T10:40:21;99626.25;;;8.60;100.00
9672;BME280;4874;43.568;27.824;2023-03-02T10:42:54;99626.75;;;8.65;100.00
9672;BME280;4874;43.568;27.824;2023-03-02T10:45:29;99622.03;;;8.58;100.00
9672;BME280;4874;43.568;27.824;2023-03-02T10:48:06;99619.00;;;8.62;100.00
9672;BME280;4874;43.568;27.824;2023-03-02T10:50:33;99622.38;;;8.06;100.00
9672;BME280;4874;43.568;27.824;2023-03-02T10:53:00;99614.38;;;8.31;100.00
9672;BME280;4874;43.568;27.824;2023-03-02T10:55:32;99615.66;;;8.25;100.00
9672;BME280;4874;43.568;27.824;2023-03-02T10:58:16;99617.84;;;8.31;100.00
9672;BME280;4874;43.568;27.824;2023-03-02T11:01:05;99612.16;;;8.60;100.00
9672;BME280;4874;43.568;27.824;2023-03-02T11:03:40;99616.94;;;7.96;100.00
9672;BME280;4874;43.568;27.824;2023-03-02T11:06:18;99609.06;;;8.31;100.00
9672;BME280;4874;43.568;27.824;2023-03-02T11:08:45;99615.75;;;8.48;100.00
9672;BME280;4874;43.568;27.824;2023-03-02T11:11:23;99600.16;;;8.32;100.00
9672;BME280;4874;43.568;27.824;2023-03-02T11:13:50;99613.28;;;7.86;100.00
9672;BME280;4874;43.568;27.824;2023-03-02T11:21:16;99603.41;;;8.81;100.00
9672;BME280;4874;43.568;27.824;2023-03-02T11:26:28;99523.63;;;8.18;100.00
9672;BME280;4874;43.568;27.824;2023-03-02T11:29:09;99591.63;;;8.74;100.00
9672;BME280;4874;43.568;27.824;2023-03-02T11:34:24;99583.00;;;8.94;100.00
9672;BME280;4874;43.568;27.824;2023-03-02T11:42:43;99583.91;;;8.60;100.00
9672;BME280;4874;43.568;27.824;2023-03-02T11:47:54;99580.81;;;8.77;100.00
9672;BME280;4874;43.568;27.824;2023-03-02T11:50:28;99573.34;;;8.25;100.00
9672;BME280;4874;43.568;27.824;2023-03-02T11:52:58;99578.50;;;8.73;100.00
9672;BME280;4874;43.568;27.824;2023-03-02T11:55:27;99569.41;;;9.21;100.00
9672;BME280;4874;43.568;27.824;2023-03-02T11:57:58;99574.31;;;9.03;100.00
9672;BME280;4874;43.568;27.824;2023-03-02T12:05:43;99588.66;;;8.44;100.00
9672;BME280;4874;43.568;27.824;2023-03-02T12:15:55;99582.16;;;8.13;100.00
9672;BME280;4874;43.568;27.824;2023-03-02T12:21:06;99570.94;;;9.45;100.00
9672;BME280;4874;43.568;27.824;2023-03-02T12:23:40;99549.84;;;8.56;100.00
9672;BME280;4874;43.568;27.824;2023-03-02T12:26:24;99570.03;;;8.46;100.00
9672;BME280;4874;43.568;27.824;2023-03-02T12:28:56;99564.56;;;9.04;100.00
9672;BME280;4874;43.568;27.824;2023-03-02T12:31:24;99539.88;;;9.03;100.00
9672;BME280;4874;43.568;27.824;2023-03-02T12:33:51;99576.25;;;8.90;100.00
9672;BME280;4874;43.568;27.824;2023-03-02T12:36:28;99567.72;;;8.98;100.00
9672;BME280;4874;43.568;27.824;2023-03-02T12:39:08;99563.25;;;8.98;100.00
9672;BME280;4874;43.568;27.824;2023-03-02T12:47:15;99553.03;;;9.16;100.00
9672;BME280;4874;43.568;27.824;2023-03-02T12:49:50;99524.97;;;8.91;100.00
9672;BME280;4874;43.568;27.824;2023-03-02T12:55:06;99537.59;;;9.21;100.00
9672;BME280;4874;43.568;27.824;2023-03-02T12:57:36;99548.16;;;8.66;100.00
9672;BME280;4874;43.568;27.824;2023-03-02T13:00:04;99512.88;;;8.32;100.00
9672;BME280;4874;43.568;27.824;2023-03-02T13:02:34;99549.31;;;8.96;100.00
9672;BME280;4874;43.568;27.824;2023-03-02T13:05:06;99550.28;;;8.27;100.00
9672;BME280;4874;43.568;27.824;2023-03-02T13:07:51;99553.47;;;7.96;100.00
9672;BME280;4874;43.568;27.824;2023-03-02T13:10:36;99558.66;;;8.78;100.00
9672;BME280;4874;43.568;27.824;2023-03-02T13:18:24;99553.13;;;9.36;100.00
9672;BME280;4874;43.568;27.824;2023-03-02T13:20:51;99550.72;;;9.33;100.00
9672;BME280;4874;43.568;27.824;2023-03-02T13:23:19;99510.63;;;8.61;100.00
9672;BME280;4874;43.568;27.824;2023-03-02T13:28:49;99543.47;;;7.89;100.00
9672;BME280;4874;43.568;27.824;2023-03-02T13:31:25;99551.22;;;8.03;100.00
9672;BME280;4874;43.568;27.824;2023-03-02T13:33:52;99542.00;;;8.19;100.00
9672;BME280;4874;43.568;27.824;2023-03-02T13:36:22;99540.44;;;8.41;100.00
9672;BME280;4874;43.568;27.824;2023-03-02T13:38:52;99533.56;;;8.03;100.00
9672;BME280;4874;43.568;27.824;2023-03-02T13:41:23;99531.78;;;7.57;100.00
9672;BME280;4874;43.568;27.824;2023-03-02T13:43:51;99533.63;;;7.91;100.00
9672;BME280;4874;43.568;27.824;2023-03-02T13:51:46;99528.50;;;7.77;100.00
9672;BME280;4874;43.568;27.824;2023-03-02T13:54:26;99519.53;;;7.79;100.00
9672;BME280;4874;43.568;27.824;2023-03-02T13:56:56;99523.38;;;7.63;100.00
9672;BME280;4874;43.568;27.824;2023-03-02T13:59:24;99516.22;;;7.88;100.00
9672;BME280;4874;43.568;27.824;2023-03-02T14:01:50;99512.22;;;8.17;100.00
9672;BME280;4874;43.568;27.824;2023-03-02T14:04:19;99506.28;;;8.03;100.00
9672;BME280;4874;43.568;27.824;2023-03-02T14:06:51;99500.50;;;7.98;100.00
9672;BME280;4874;43.568;27.824;2023-03-02T14:09:19;99506.63;;;7.75;100.00
9672;BME280;4874;43.568;27.824;2023-03-02T14:11:48;99494.22;;;7.99;100.00
9672;BME280;4874;43.568;27.824;2023-03-02T14:14:19;99487.41;;;7.96;100.00
9672;BME280;4874;43.568;27.824;2023-03-02T14:16:46;99481.78;;;8.12;100.00
9672;BME280;4874;43.568;27.824;2023-03-02T14:19:14;99473.56;;;8.04;100.00
9672;BME280;4874;43.568;27.824;2023-03-02T14:21:45;99474.19;;;7.96;100.00
9672;BME280;4874;43.568;27.824;2023-03-02T14:24:12;99478.03;;;7.69;100.00
9672;BME280;4874;43.568;27.824;2023-03-02T14:26:40;99481.25;;;7.96;100.00
9672;BME280;4874;43.568;27.824;2023-03-02T14:29:20;99485.97;;;8.38;100.00
9672;BME280;4874;43.568;27.824;2023-03-02T14:31:47;99455.53;;;8.44;100.00
9672;BME280;4874;43.568;27.824;2023-03-02T14:34:15;99476.00;;;8.53;100.00
9672;BME280;4874;43.568;27.824;2023-03-02T14:36:44;99479.50;;;8.53;100.00
9672;BME280;4874;43.568;27.824;2023-03-02T14:41:47;99474.34;;;8.17;100.00
9672;BME280;4874;43.568;27.824;2023-03-02T14:44:19;99458.38;;;8.18;100.00